Time,TemperatureF,DewpointF,PressureIn,WindDirection,WindDirectionDegrees,WindSpeedMPH,WindSpeedGustMPH,Humidity,HourlyPrecipIn,Conditions,Clouds,dailyrainin,SolarRadiationWatts/m^2,SoftwareType,DateUTC
2013-04-15 00:00:00,76.2,73.7,30.00,South,180,6.0,14.0,92,0.00,,---,0.00,0.00,VWS V14.01,2013-04-15 04:00:00,
2013-04-15 00:08:00,74.3,71.0,29.98,ESE,113,9.0,11.0,89,0.07,,,0.07,0,weatherlink.com 1.10,2013-04-15 04:08:00,
2013-04-15 00:23:00,72.1,69.0,30.01,NE,44,8.0,17.0,90,0.12,,,0.12,0,weatherlink.com 1.10,2013-04-15 04:23:00,
2013-04-15 00:30:00,71.0,67.9,30.01,ENE,68,6.0,17.0,90,0.16,,---,0.16,0.00,VWS V14.01,2013-04-15 04:30:00,
2013-04-15 00:38:00,70.1,67.0,30.02,ENE,68,2.0,8.0,91,0.22,,,0.22,0,weatherlink.com 1.10,2013-04-15 04:38:00,
2013-04-15 00:53:00,68.9,66.0,30.01,ENE,65,2.0,5.0,91,0.30,,,0.30,0,weatherlink.com 1.10,2013-04-15 04:53:00,
2013-04-15 01:00:00,68.5,66.1,30.01,NNW,338,3.0,8.0,92,0.50,,---,0.50,0.00,VWS V14.01,2013-04-15 05:00:00,
2013-04-15 01:08:00,68.2,66.0,30.01,NE,46,4.0,6.0,92,0.56,,,0.64,0,weatherlink.com 1.10,2013-04-15 05:08:00,
2013-04-15 01:23:00,67.9,66.0,30.00,NE,40,1.0,6.0,93,0.56,,,0.68,0,weatherlink.com 1.10,2013-04-15 05:23:00,
2013-04-15 01:30:00,67.9,65.8,30.00,NE,45,2.0,6.0,93,0.69,,---,0.69,0.00,VWS V14.01,2013-04-15 05:30:00,
2013-04-15 01:38:00,67.9,66.0,30.00,WNW,301,2.0,6.0,94,0.48,,,0.70,0,weatherlink.com 1.10,2013-04-15 05:38:00,
2013-04-15 01:53:00,67.8,66.0,29.99,WNW,282,1.0,4.0,94,0.38,,,0.70,0,weatherlink.com 1.10,2013-04-15 05:53:00,
2013-04-15 02:00:00,67.7,65.9,29.99,WNW,292,2.0,6.0,94,0.57,,---,0.73,0.00,VWS V14.01,2013-04-15 06:00:00,
2013-04-15 02:08:00,67.7,66.0,29.98,WNW,289,1.0,3.0,94,0.09,,,0.73,0,weatherlink.com 1.10,2013-04-15 06:08:00,
2013-04-15 02:23:00,67.8,66.0,29.97,WNW,285,2.0,5.0,95,0.05,,,0.73,0,weatherlink.com 1.10,2013-04-15 06:23:00,
2013-04-15 02:30:00,67.9,66.4,29.97,WNW,292,2.0,5.0,95,0.23,,---,0.73,0.00,VWS V14.01,2013-04-15 06:30:00,
2013-04-15 02:38:00,67.9,67.0,29.96,WNW,296,2.0,4.0,95,0.03,,,0.73,0,weatherlink.com 1.10,2013-04-15 06:38:00,
2013-04-15 02:53:00,68.1,67.0,29.97,ENE,57,3.0,3.0,95,0.03,,,0.73,0,weatherlink.com 1.10,2013-04-15 06:53:00,
2013-04-15 03:00:00,68.2,66.7,29.97,WNW,292,1.0,5.0,95,0.04,,---,0.73,0.00,VWS V14.01,2013-04-15 07:00:00,
2013-04-15 03:30:00,68.3,66.8,29.95,NNE,22,1.0,4.0,95,0.00,,---,0.73,0.00,VWS V14.01,2013-04-15 07:30:00,
2013-04-15 03:53:00,67.8,66.0,29.94,SSE,165,2.0,3.0,95,0.00,,,0.73,0,weatherlink.com 1.10,2013-04-15 07:53:00,
2013-04-15 04:00:00,67.8,66.3,29.94,ENE,68,1.0,3.0,95,0.00,,---,0.73,0.00,VWS V14.01,2013-04-15 08:00:00,
2013-04-15 04:08:00,67.7,66.0,29.94,East,88,3.0,5.0,95,0.00,,,0.73,0,weatherlink.com 1.10,2013-04-15 08:08:00,
2013-04-15 04:23:00,67.5,66.0,29.95,NW,308,2.0,5.0,95,0.00,,,0.73,0,weatherlink.com 1.10,2013-04-15 08:23:00,
2013-04-15 04:30:00,67.5,66.0,29.94,ENE,68,2.0,5.0,95,0.00,,---,0.73,0.00,VWS V14.01,2013-04-15 08:30:00,
2013-04-15 04:38:00,67.3,66.0,29.95,East,97,2.0,4.0,95,0.00,,,0.73,0,weatherlink.com 1.10,2013-04-15 08:38:00,
2013-04-15 04:53:00,67.2,66.0,29.94,East,101,1.0,4.0,95,0.00,,,0.73,0,weatherlink.com 1.10,2013-04-15 08:53:00,
2013-04-15 05:00:00,67.2,66.0,29.94,East,90,2.0,4.0,96,0.00,,---,0.73,0.00,VWS V14.01,2013-04-15 09:00:00,
2013-04-15 05:08:00,67.1,66.0,29.94,SW,221,2.0,5.0,96,0.00,,,0.73,0,weatherlink.com 1.10,2013-04-15 09:08:00,
2013-04-15 05:23:00,67.1,66.0,29.93,SSE,168,2.0,4.0,96,0.00,,,0.73,0,weatherlink.com 1.10,2013-04-15 09:23:00,
2013-04-15 05:30:00,67.1,65.9,29.94,WSW,248,2.0,5.0,96,0.00,,---,0.73,0.00,VWS V14.01,2013-04-15 09:30:00,
2013-04-15 05:38:00,67.1,66.0,29.93,WSW,238,2.0,4.0,96,0.00,,,0.73,0,weatherlink.com 1.10,2013-04-15 09:38:00,
2013-04-15 05:53:00,67.0,66.0,29.94,South,189,1.0,3.0,96,0.00,,,0.73,0,weatherlink.com 1.10,2013-04-15 09:53:00,
2013-04-15 06:00:00,66.9,65.7,29.94,West,270,1.0,4.0,96,0.00,,---,0.73,0.00,VWS V14.01,2013-04-15 10:00:00,
2013-04-15 06:08:00,66.9,66.0,29.94,SSW,199,1.0,2.0,96,0.00,,,0.73,0,weatherlink.com 1.10,2013-04-15 10:08:00,
2013-04-15 06:23:00,66.9,66.0,29.95,NE,40,2.0,2.0,96,0.00,,,0.73,0,weatherlink.com 1.10,2013-04-15 10:23:00,
2013-04-15 06:30:00,66.9,65.7,29.95,SSW,202,1.0,3.0,96,0.00,,---,0.73,0.00,VWS V14.01,2013-04-15 10:30:00,
2013-04-15 06:38:00,67.0,66.0,29.95,SSE,155,1.0,3.0,96,0.00,,,0.73,0,weatherlink.com 1.10,2013-04-15 10:38:00,
2013-04-15 06:53:00,67.0,66.0,29.95,ESE,116,2.0,3.0,96,0.00,,,0.73,0,weatherlink.com 1.10,2013-04-15 10:53:00,
2013-04-15 07:00:00,67.0,65.8,29.95,ESE,112,1.0,3.0,96,0.00,,---,0.73,0.00,VWS V14.01,2013-04-15 11:00:00,
2013-04-15 07:08:00,67.1,66.0,29.96,SE,126,2.0,3.0,96,0.00,,,0.73,18,weatherlink.com 1.10,2013-04-15 11:08:00,
2013-04-15 07:23:00,67.5,66.0,29.97,SE,126,2.0,3.0,96,0.00,,,0.73,37,weatherlink.com 1.10,2013-04-15 11:23:00,
2013-04-15 07:30:00,67.7,66.5,29.97,SE,135,1.0,3.0,96,0.00,,---,0.73,24.00,VWS V14.01,2013-04-15 11:30:00,
2013-04-15 07:38:00,68.2,67.0,29.97,South,187,1.0,2.0,96,0.00,,,0.73,65,weatherlink.com 1.10,2013-04-15 11:38:00,
2013-04-15 07:53:00,68.9,68.0,29.97,SSE,162,1.0,2.0,96,0.00,,,0.73,69,weatherlink.com 1.10,2013-04-15 11:53:00,
2013-04-15 08:00:00,69.0,67.8,29.97,SSE,158,1.0,3.0,96,0.00,,---,0.73,72.00,VWS V14.01,2013-04-15 12:00:00,
2013-04-15 08:08:00,69.3,68.0,29.98,SSE,163,0.0,2.0,96,0.00,,,0.73,155,weatherlink.com 1.10,2013-04-15 12:08:00,
2013-04-15 08:23:00,70.3,69.0,29.98,SSE,163,1.0,3.0,96,0.01,,,0.74,241,weatherlink.com 1.10,2013-04-15 12:23:00,
2013-04-15 08:30:00,70.8,69.6,29.98,SSE,158,1.0,3.0,96,0.01,,---,0.74,168.00,VWS V14.01,2013-04-15 12:30:00,
2013-04-15 08:38:00,71.5,70.0,29.98,SE,146,2.0,3.0,95,0.01,,,0.74,297,weatherlink.com 1.10,2013-04-15 12:38:00,
2013-04-15 08:54:00,72.4,71.0,29.99,South,174,3.0,5.0,94,0.01,,,0.74,304,weatherlink.com 1.10,2013-04-15 12:54:00,
2013-04-15 09:00:00,72.8,70.3,29.99,South,180,2.0,5.0,92,0.01,,---,0.74,293.00,VWS V14.01,2013-04-15 13:00:00,
2013-04-15 09:09:00,73.6,71.0,29.99,South,172,0.0,4.0,90,0.01,,,0.74,469,weatherlink.com 1.10,2013-04-15 13:09:00,
2013-04-15 09:24:00,75.4,71.0,29.99,South,175,0.0,2.0,85,0.00,,,0.74,661,weatherlink.com 1.10,2013-04-15 13:24:00,
2013-04-15 09:30:00,76.1,70.9,29.99,South,180,1.0,4.0,84,0.01,,---,0.74,412.00,VWS V14.01,2013-04-15 13:30:00,
2013-04-15 09:39:00,77.3,71.0,29.99,SSW,198,0.0,2.0,80,0.00,,,0.74,250,weatherlink.com 1.10,2013-04-15 13:39:00,
2013-04-15 09:54:00,78.9,70.0,29.99,SSE,151,1.0,3.0,75,0.00,,,0.74,204,weatherlink.com 1.10,2013-04-15 13:54:00,
2013-04-15 10:00:00,79.2,69.8,29.99,SSW,202,1.0,3.0,73,0.00,,---,0.74,232.00,VWS V14.01,2013-04-15 14:00:00,
2013-04-15 10:09:00,79.8,70.0,29.99,SSE,159,1.0,4.0,71,0.00,,,0.74,265,weatherlink.com 1.10,2013-04-15 14:09:00,
2013-04-15 10:24:00,81.2,71.0,30.00,SSE,148,4.0,5.0,72,0.00,,,0.74,369,weatherlink.com 1.10,2013-04-15 14:24:00,
2013-04-15 10:30:00,81.4,71.5,30.00,SE,135,3.0,7.0,72,0.00,,---,0.74,430.00,VWS V14.01,2013-04-15 14:30:00,
2013-04-15 10:39:00,81.7,73.0,30.01,SSE,152,5.0,8.0,75,0.00,,,0.74,262,weatherlink.com 1.10,2013-04-15 14:39:00,
2013-04-15 10:54:00,82.0,73.0,30.01,East,93,5.0,7.0,74,0.00,,,0.74,828,weatherlink.com 1.10,2013-04-15 14:54:00,
2013-04-15 11:00:00,82.2,73.5,30.01,SE,135,4.0,8.0,75,0.00,,---,0.74,712.00,VWS V14.01,2013-04-15 15:00:00,
2013-04-15 11:09:00,82.9,73.0,30.02,East,91,5.0,6.0,73,0.00,,,0.74,554,weatherlink.com 1.10,2013-04-15 15:09:00,
2013-04-15 11:24:00,84.2,74.0,30.02,SE,136,2.0,7.0,72,0.00,,,0.74,578,weatherlink.com 1.10,2013-04-15 15:24:00,
2013-04-15 11:30:00,84.5,74.1,30.01,ESE,112,4.0,8.0,71,0.00,,---,0.74,796.00,VWS V14.01,2013-04-15 15:30:00,
2013-04-15 11:39:00,85.0,74.0,30.01,SE,145,3.0,8.0,70,0.00,,,0.74,867,weatherlink.com 1.10,2013-04-15 15:39:00,
2013-04-15 11:54:00,85.2,74.0,30.01,SE,140,5.0,8.0,70,0.00,,,0.74,889,weatherlink.com 1.10,2013-04-15 15:54:00,
2013-04-15 12:24:00,85.8,75.0,30.01,SSE,153,3.0,8.0,70,0.00,,,0.74,933,weatherlink.com 1.10,2013-04-15 16:24:00,
2013-04-15 12:30:00,86.0,75.1,30.01,SSE,158,4.0,9.0,70,0.00,,---,0.74,918.00,VWS V14.01,2013-04-15 16:30:00,
2013-04-15 12:39:00,86.4,76.0,30.01,ESE,113,4.0,6.0,70,0.00,,,0.74,947,weatherlink.com 1.10,2013-04-15 16:39:00,
2013-04-15 12:54:00,86.9,76.0,30.00,South,190,5.0,7.0,69,0.00,,,0.74,963,weatherlink.com 1.10,2013-04-15 16:54:00,
2013-04-15 13:00:00,87.0,75.6,30.00,SE,135,4.0,8.0,69,0.00,,---,0.74,954.00,VWS V14.01,2013-04-15 17:00:00,
2013-04-15 13:09:00,87.2,76.0,30.00,SE,146,5.0,9.0,69,0.00,,,0.74,1144,weatherlink.com 1.10,2013-04-15 17:09:00,
2013-04-15 13:24:00,86.4,75.0,30.01,ESE,120,4.0,9.0,69,0.00,,,0.74,1069,weatherlink.com 1.10,2013-04-15 17:24:00,
2013-04-15 13:30:00,86.3,75.4,30.00,SE,135,5.0,9.0,70,0.00,,---,0.74,917.00,VWS V14.01,2013-04-15 17:30:00,
2013-04-15 13:34:00,86.2,75.3,30.01,SE,133,5.0,5.0,70,0.00,,---,0.74,737.00,VWS V14.01,2013-04-15 17:34:00,
2013-04-15 13:40:00,86.0,76.0,30.00,SSE,165,6.0,8.0,71,0.00,,,0.74,1079,weatherlink.com 1.10,2013-04-15 17:40:00,
2013-04-15 13:55:00,85.3,76.0,30.00,SE,142,4.0,9.0,73,0.00,,,0.74,1123,weatherlink.com 1.10,2013-04-15 17:55:00,
2013-04-15 14:00:00,85.2,75.6,30.00,SSE,158,5.0,9.0,73,0.00,,---,0.74,1067.00,VWS V14.01,2013-04-15 18:00:00,
2013-04-15 14:10:00,85.2,76.0,29.99,WSW,238,3.0,8.0,74,0.00,,,0.74,1155,weatherlink.com 1.10,2013-04-15 18:10:00,
2013-04-15 14:25:00,85.6,76.0,29.99,South,169,6.0,7.0,73,0.00,,,0.74,1025,weatherlink.com 1.10,2013-04-15 18:25:00,
2013-04-15 14:30:00,85.8,76.2,29.99,West,270,4.0,8.0,73,0.00,,---,0.74,850.00,VWS V14.01,2013-04-15 18:30:00,
2013-04-15 14:40:00,86.5,77.0,29.99,West,278,3.0,7.0,72,0.00,,,0.74,1037,weatherlink.com 1.10,2013-04-15 18:40:00,
2013-04-15 14:55:00,87.7,77.0,29.99,WNW,300,2.0,7.0,70,0.00,,,0.74,1055,weatherlink.com 1.10,2013-04-15 18:55:00,
2013-04-15 15:00:00,88.0,76.6,29.99,SSW,202,4.0,7.0,69,0.00,,---,0.74,1045.00,VWS V14.01,2013-04-15 19:00:00,
2013-04-15 15:10:00,88.7,77.0,29.98,WNW,282,2.0,6.0,68,0.00,,,0.74,267,weatherlink.com 1.10,2013-04-15 19:10:00,
2013-04-15 15:25:00,87.8,76.0,29.99,ESE,109,4.0,6.0,69,0.00,,,0.74,107,weatherlink.com 1.10,2013-04-15 19:25:00,
2013-04-15 15:30:00,87.4,76.4,29.99,West,270,3.0,6.0,70,0.00,,---,0.74,237.00,VWS V14.01,2013-04-15 19:30:00,
2013-04-15 15:40:00,86.2,77.0,29.99,WNW,292,2.0,4.0,74,0.01,,,0.75,325,weatherlink.com 1.10,2013-04-15 19:40:00,
2013-04-15 16:00:00,83.9,75.9,29.98,West,270,2.0,6.0,77,0.02,,---,0.76,299.00,VWS V14.01,2013-04-15 20:00:00,
2013-04-15 16:10:00,82.5,75.0,29.97,WNW,282,2.0,8.0,77,0.02,,,0.76,408,weatherlink.com 1.10,2013-04-15 20:10:00,
2013-04-15 16:25:00,81.1,74.0,29.98,West,275,4.0,7.0,78,0.02,,,0.76,373,weatherlink.com 1.10,2013-04-15 20:25:00,
2013-04-15 16:30:00,80.9,73.8,29.98,WNW,292,4.0,8.0,79,0.02,,---,0.76,396.00,VWS V14.01,2013-04-15 20:30:00,
2013-04-15 16:40:00,81.0,74.0,29.99,SW,236,1.0,6.0,80,0.01,,,0.76,415,weatherlink.com 1.10,2013-04-15 20:40:00,
2013-04-15 16:55:00,81.4,75.0,29.99,SW,223,4.0,5.0,80,0.00,,,0.76,383,weatherlink.com 1.10,2013-04-15 20:55:00,
2013-04-15 17:00:00,81.6,74.8,29.98,SW,225,3.0,7.0,80,0.02,,---,0.76,459.00,VWS V14.01,2013-04-15 21:00:00,
2013-04-15 17:10:00,82.0,75.0,29.98,South,179,2.0,8.0,78,0.00,,,0.76,313,weatherlink.com 1.10,2013-04-15 21:10:00,
2013-04-15 17:25:00,82.1,74.0,29.97,WSW,244,3.0,6.0,77,0.00,,,0.76,144,weatherlink.com 1.10,2013-04-15 21:25:00,
2013-04-15 17:30:00,82.0,74.1,29.97,WSW,248,3.0,8.0,77,0.00,,---,0.76,238.00,VWS V14.01,2013-04-15 21:30:00,
2013-04-15 17:40:00,81.5,74.0,29.98,SSW,198,8.0,9.0,78,0.00,,,0.76,118,weatherlink.com 1.10,2013-04-15 21:40:00,
2013-04-15 17:55:00,80.7,74.0,29.98,WSW,245,3.0,7.0,79,0.00,,,0.76,86,weatherlink.com 1.10,2013-04-15 21:55:00,
2013-04-15 18:00:00,80.4,73.7,29.98,WSW,248,3.0,9.0,80,0.00,,---,0.76,117.00,VWS V14.01,2013-04-15 22:00:00,
2013-04-15 18:10:00,79.9,74.0,29.99,SW,227,3.0,4.0,81,0.00,,,0.76,97,weatherlink.com 1.10,2013-04-15 22:10:00,
2013-04-15 18:25:00,79.6,74.0,29.99,WSW,248,4.0,6.0,83,0.00,,,0.76,255,weatherlink.com 1.10,2013-04-15 22:25:00,
2013-04-15 18:30:00,79.6,74.0,29.99,SW,225,2.0,6.0,83,0.00,,---,0.76,126.00,VWS V14.01,2013-04-15 22:30:00,
2013-04-15 18:40:00,79.8,75.0,29.99,SW,234,2.0,6.0,84,0.00,,,0.76,192,weatherlink.com 1.10,2013-04-15 22:40:00,
2013-04-15 18:55:00,80.3,75.0,29.99,West,263,3.0,5.0,83,0.00,,,0.76,113,weatherlink.com 1.10,2013-04-15 22:55:00,
2013-04-15 19:00:00,80.4,74.8,29.99,WSW,248,3.0,6.0,83,0.00,,---,0.76,170.00,VWS V14.01,2013-04-15 23:00:00,
2013-04-15 19:10:00,80.2,74.0,30.01,WSW,241,1.0,5.0,82,0.00,,,0.76,37,weatherlink.com 1.10,2013-04-15 23:10:00,
2013-04-15 19:25:00,79.8,74.0,30.01,West,263,1.0,4.0,83,0.00,,,0.76,23,weatherlink.com 1.10,2013-04-15 23:25:00,
2013-04-15 19:30:00,79.7,74.1,30.01,WSW,248,2.0,5.0,83,0.00,,---,0.76,33.00,VWS V14.01,2013-04-15 23:30:00,
2013-04-15 19:40:00,79.4,74.0,30.03,West,271,2.0,4.0,84,0.00,,,0.76,5,weatherlink.com 1.10,2013-04-15 23:40:00,
2013-04-15 19:55:00,79.0,74.0,30.02,West,271,0.0,3.0,85,0.00,,,0.76,0,weatherlink.com 1.10,2013-04-15 23:55:00,
2013-04-15 20:00:00,78.9,74.0,30.03,West,270,1.0,3.0,85,0.00,,---,0.76,3.00,VWS V14.01,2013-04-16 00:00:00,
2013-04-15 20:10:00,78.7,74.0,30.03,West,269,1.0,3.0,86,0.00,,,0.76,0,weatherlink.com 1.10,2013-04-16 00:10:00,
2013-04-15 20:25:00,78.4,74.0,30.03,West,265,0.0,2.0,87,0.00,,,0.76,0,weatherlink.com 1.10,2013-04-16 00:25:00,
2013-04-15 20:30:00,78.3,74.1,30.03,West,270,1.0,3.0,87,0.00,,---,0.76,0.00,VWS V14.01,2013-04-16 00:30:00,
2013-04-15 20:40:00,78.1,74.0,30.04,West,267,2.0,3.0,87,0.00,,,0.76,0,weatherlink.com 1.10,2013-04-16 00:40:00,
2013-04-15 20:55:00,77.9,74.0,30.04,West,281,1.0,3.0,88,0.00,,,0.76,0,weatherlink.com 1.10,2013-04-16 00:55:00,
2013-04-15 21:00:00,77.8,74.3,30.04,West,270,1.0,3.0,89,0.00,,---,0.76,0.00,VWS V14.01,2013-04-16 01:00:00,
2013-04-15 21:10:00,77.6,74.0,30.04,WNW,292,0.0,2.0,89,0.00,,,0.76,0,weatherlink.com 1.10,2013-04-16 01:10:00,
2013-04-15 21:25:00,77.3,74.0,30.05,SSE,166,2.0,2.0,89,0.00,,,0.76,0,weatherlink.com 1.10,2013-04-16 01:25:00,
2013-04-15 21:30:00,77.3,73.8,30.05,WNW,292,1.0,2.0,89,0.00,,---,0.76,0.00,VWS V14.01,2013-04-16 01:30:00,
2013-04-15 21:40:00,77.2,74.0,30.06,SSE,163,0.0,2.0,90,0.00,,,0.76,0,weatherlink.com 1.10,2013-04-16 01:40:00,
2013-04-15 21:55:00,77.1,74.0,30.07,East,95,2.0,5.0,90,0.00,,,0.76,0,weatherlink.com 1.10,2013-04-16 01:55:00,
2013-04-15 22:00:00,77.1,73.9,30.07,SSE,158,1.0,9.0,90,0.00,,---,0.76,0.00,VWS V14.01,2013-04-16 02:00:00,
2013-04-15 22:10:00,76.5,73.0,30.07,NW,311,2.0,7.0,89,0.00,,,0.76,0,weatherlink.com 1.10,2013-04-16 02:10:00,
2013-04-15 22:25:00,75.7,72.0,30.07,NNE,24,2.0,7.0,88,0.00,,,0.76,0,weatherlink.com 1.10,2013-04-16 02:25:00,
2013-04-15 22:30:00,75.6,71.8,30.07,East,90,3.0,7.0,88,0.00,,---,0.76,0.00,VWS V14.01,2013-04-16 02:30:00,
2013-04-15 22:40:00,75.4,71.0,30.07,SSE,165,1.0,5.0,87,0.00,,,0.76,0,weatherlink.com 1.10,2013-04-16 02:40:00,
2013-04-15 22:55:00,75.2,71.0,30.06,WNW,298,2.0,4.0,87,0.00,,,0.76,0,weatherlink.com 1.10,2013-04-16 02:55:00,
2013-04-15 23:00:00,75.1,71.0,30.06,WNW,292,2.0,6.0,87,0.00,,---,0.76,0.00,VWS V14.01,2013-04-16 03:00:00,
2013-04-15 23:10:00,74.9,71.0,30.06,NW,313,2.0,4.0,87,0.00,,,0.76,0,weatherlink.com 1.10,2013-04-16 03:10:00,
2013-04-15 23:25:00,74.7,71.0,30.06,WNW,290,3.0,4.0,87,0.00,,,0.76,0,weatherlink.com 1.10,2013-04-16 03:25:00,
2013-04-15 23:30:00,74.7,70.6,30.07,NW,315,2.0,4.0,87,0.00,,---,0.76,0.00,VWS V14.01,2013-04-16 03:30:00,
2013-04-15 23:40:00,74.5,71.0,30.07,NNE,19,1.0,4.0,87,0.00,,,0.76,0,weatherlink.com 1.10,2013-04-16 03:40:00,
2013-04-15 23:55:00,74.4,70.0,30.06,NW,311,2.0,3.0,87,0.00,,,0.76,0,weatherlink.com 1.10,2013-04-16 03:55:00,